createdAt,value
2022-12-25T00:00:07.627Z,12.20
2022-12-25T00:02:35.580Z,12.00
2022-12-25T00:05:02.806Z,12.68
2022-12-25T00:07:30.015Z,13.20
2022-12-25T00:09:57.051Z,12.00
2022-12-25T00:12:24.464Z,12.05
2022-12-25T00:14:51.475Z,11.32
2022-12-25T00:17:18.456Z,14.20
2022-12-25T00:19:45.454Z,11.20
2022-12-25T00:22:12.480Z,12.30
2022-12-25T00:24:40.572Z,10.90
2022-12-25T00:27:07.863Z,10.20
2022-12-25T00:29:35.761Z,9.18
2022-12-25T00:32:02.832Z,8.43
2022-12-25T00:34:30.835Z,9.25
2022-12-25T00:36:57.861Z,8.90
2022-12-25T00:39:25.040Z,7.20
2022-12-25T00:42:11.025Z,7.65
2022-12-25T00:44:38.082Z,7.63
2022-12-25T00:47:05.184Z,7.10
2022-12-25T00:49:32.281Z,7.00
2022-12-25T00:51:59.771Z,7.13
2022-12-25T00:54:26.760Z,7.03
2022-12-25T00:56:53.809Z,7.30
2022-12-25T00:59:20.886Z,7.30
2022-12-25T01:01:48.065Z,7.43
2022-12-25T01:04:15.380Z,7.70
2022-12-25T01:06:42.516Z,7.55
2022-12-25T01:09:30.126Z,8.18
2022-12-25T01:11:57.125Z,6.32
2022-12-25T01:14:24.137Z,6.75
2022-12-25T01:16:51.195Z,7.45
2022-12-25T01:19:18.149Z,6.50
2022-12-25T01:21:45.118Z,6.10
2022-12-25T01:24:13.068Z,6.68
2022-12-25T01:26:40.052Z,6.22
2022-12-25T01:29:07.111Z,6.63
2022-12-25T01:31:34.152Z,6.85
2022-12-25T01:34:01.245Z,6.40
2022-12-25T01:36:28.213Z,6.38
2022-12-25T01:38:56.318Z,5.80
2022-12-25T01:41:25.008Z,7.28
2022-12-25T01:44:14.652Z,6.32
2022-12-25T01:46:43.715Z,6.35
2022-12-25T01:49:16.827Z,6.18
2022-12-25T01:51:55.813Z,6.28
2022-12-25T01:55:04.015Z,6.20
2022-12-25T01:57:36.037Z,6.18
2022-12-25T02:00:06.417Z,6.32
2022-12-25T02:02:34.865Z,6.05
2022-12-25T02:05:25.952Z,5.85
2022-12-25T02:07:57.884Z,6.25
2022-12-25T02:10:26.348Z,6.70
2022-12-25T02:12:53.461Z,6.47
2022-12-25T02:15:30.443Z,6.35
2022-12-25T02:18:16.620Z,6.57
2022-12-25T02:21:33.527Z,6.60
2022-12-25T02:24:56.241Z,6.82
2022-12-25T02:27:44.300Z,7.35
2022-12-25T02:30:12.418Z,7.30
2022-12-25T02:33:24.686Z,6.40
2022-12-25T02:35:57.038Z,6.53
2022-12-25T02:38:39.019Z,6.70
2022-12-25T02:41:15.743Z,6.88
2022-12-25T02:44:22.335Z,6.53
2022-12-25T02:47:09.318Z,6.70
2022-12-25T02:49:58.352Z,6.38
2022-12-25T02:52:48.345Z,6.78
2022-12-25T02:55:43.289Z,6.68
2022-12-25T02:58:34.899Z,7.07
2022-12-25T03:01:35.727Z,6.43
2022-12-25T03:04:30.003Z,6.82
2022-12-25T03:07:16.184Z,6.53
2022-12-25T03:10:10.604Z,6.95
2022-12-25T03:12:46.392Z,6.47
2022-12-25T03:15:32.693Z,5.90
2022-12-25T03:18:05.225Z,6.13
2022-12-25T03:20:52.251Z,6.40
2022-12-25T03:23:45.571Z,6.40
2022-12-25T03:26:31.394Z,5.93
2022-12-25T03:28:58.468Z,6.35
2022-12-25T03:31:51.511Z,5.95
2022-12-25T03:35:07.764Z,6.10
2022-12-25T03:38:13.577Z,6.40
2022-12-25T03:41:37.808Z,6.32
2022-12-25T03:44:43.140Z,6.03
2022-12-25T03:47:37.509Z,6.65
2022-12-25T03:50:37.405Z,6.57
2022-12-25T03:54:06.330Z,6.35
2022-12-25T03:56:54.398Z,6.13
2022-12-25T03:59:42.308Z,6.03
2022-12-25T04:02:28.848Z,6.28
2022-12-25T04:05:14.955Z,6.60
2022-12-25T04:08:00.889Z,6.47
2022-12-25T04:10:46.655Z,6.60
2022-12-25T04:13:33.591Z,6.25
2022-12-25T04:16:19.367Z,6.43
2022-12-25T04:19:05.103Z,6.90
2022-12-25T04:21:50.778Z,7.13
2022-12-25T04:24:36.609Z,6.32
2022-12-25T04:27:22.358Z,6.50
2022-12-25T04:30:07.789Z,6.68
2022-12-25T04:32:54.542Z,6.18
2022-12-25T04:35:43.202Z,6.15
2022-12-25T04:38:12.227Z,6.65
2022-12-25T04:40:39.147Z,6.35
2022-12-25T04:43:06.174Z,5.93
2022-12-25T04:45:35.189Z,6.30
2022-12-25T04:48:02.147Z,6.20
2022-12-25T04:50:29.191Z,5.65
2022-12-25T04:52:56.214Z,5.97
2022-12-25T04:55:23.141Z,6.47
2022-12-25T04:57:50.039Z,6.68
2022-12-25T05:00:17.712Z,6.05
2022-12-25T05:02:44.873Z,6.88
2022-12-25T05:05:11.974Z,6.88
2022-12-25T05:07:38.865Z,6.22
2022-12-25T05:10:06.862Z,7.05
2022-12-25T05:12:33.907Z,6.78
2022-12-25T05:15:00.939Z,7.15
2022-12-25T05:17:27.980Z,7.10
2022-12-25T05:19:55.022Z,8.18
2022-12-25T05:22:22.035Z,7.43
2022-12-25T05:24:49.032Z,7.88
2022-12-25T05:27:16.199Z,8.63
2022-12-25T05:29:43.226Z,8.13
2022-12-25T05:32:10.241Z,8.00
2022-12-25T05:34:37.288Z,8.98
2022-12-25T05:37:04.355Z,9.82
2022-12-25T05:39:31.381Z,9.15
2022-12-25T05:42:00.403Z,9.43
2022-12-25T05:44:28.408Z,9.20
2022-12-25T05:47:20.986Z,9.13
2022-12-25T05:49:48.037Z,10.00
2022-12-25T05:52:15.994Z,9.05
2022-12-25T05:54:44.091Z,8.65
2022-12-25T05:57:11.039Z,8.45
2022-12-25T05:59:39.037Z,8.43
2022-12-25T06:02:06.113Z,8.55
2022-12-25T06:04:33.265Z,8.68
2022-12-25T06:07:00.270Z,8.25
2022-12-25T06:09:27.394Z,8.48
2022-12-25T06:11:54.468Z,9.05
2022-12-25T06:14:21.449Z,7.82
2022-12-25T06:16:52.822Z,7.22
2022-12-25T06:19:21.644Z,7.60
2022-12-25T06:21:48.822Z,7.18
2022-12-25T06:24:20.996Z,7.90
2022-12-25T06:26:48.857Z,6.75
2022-12-25T06:29:16.421Z,6.47
2022-12-25T06:31:43.620Z,6.03
2022-12-25T06:34:10.693Z,6.88
2022-12-25T06:36:38.286Z,6.57
2022-12-25T06:39:05.329Z,6.53
2022-12-25T06:41:33.627Z,6.35
2022-12-25T06:44:02.407Z,6.53
2022-12-25T06:46:30.941Z,5.82
2022-12-25T06:49:00.240Z,6.57
2022-12-25T06:51:33.350Z,6.03
2022-12-25T06:54:04.857Z,5.70
2022-12-25T06:56:33.782Z,5.40
2022-12-25T06:59:05.605Z,5.63
2022-12-25T07:01:53.532Z,5.25
2022-12-25T07:04:38.714Z,5.30
2022-12-25T07:07:09.602Z,5.38
2022-12-25T07:09:42.380Z,5.05
2022-12-25T07:12:23.202Z,5.63
2022-12-25T07:14:54.232Z,5.90
2022-12-25T07:17:22.372Z,5.50
2022-12-25T07:19:51.615Z,5.22
2022-12-25T07:22:18.813Z,5.38
2022-12-25T07:24:45.759Z,5.30
2022-12-25T07:27:13.153Z,5.22
2022-12-25T07:29:40.185Z,4.80
2022-12-25T07:32:07.354Z,4.88
2022-12-25T07:34:34.438Z,5.22
2022-12-25T07:37:01.543Z,4.22
2022-12-25T07:39:28.896Z,4.20
2022-12-25T07:41:55.985Z,4.85
2022-12-25T07:44:26.438Z,4.00
2022-12-25T07:46:53.493Z,4.38
2022-12-25T07:49:20.892Z,3.97
2022-12-25T07:51:48.049Z,4.20
2022-12-25T07:54:15.064Z,3.63
2022-12-25T07:56:42.080Z,3.85
2022-12-25T07:59:10.142Z,3.30
2022-12-25T08:01:39.514Z,3.20
2022-12-25T08:04:08.252Z,3.40
2022-12-25T08:06:38.248Z,3.22
2022-12-25T08:09:12.700Z,3.20
2022-12-25T08:14:13.667Z,3.10
2022-12-25T08:16:42.129Z,3.10
2022-12-25T08:19:09.658Z,3.25
2022-12-25T08:21:37.598Z,2.78
2022-12-25T08:24:04.866Z,2.80
2022-12-25T08:26:31.921Z,3.15
2022-12-25T08:28:59.002Z,2.75
2022-12-25T08:31:29.598Z,3.25
2022-12-25T08:33:58.986Z,2.80
2022-12-25T08:36:26.632Z,2.80
2022-12-25T08:39:00.322Z,2.55
2022-12-25T08:41:31.307Z,2.92
2022-12-25T08:44:22.905Z,2.42
2022-12-25T08:46:50.952Z,2.50
2022-12-25T08:49:18.087Z,3.13
2022-12-25T08:51:45.740Z,2.80
2022-12-25T08:54:12.848Z,2.60
2022-12-25T08:56:40.031Z,3.10
2022-12-25T08:59:07.081Z,4.18
2022-12-25T09:01:34.195Z,14.23
2022-12-25T09:04:03.315Z,12.75
2022-12-25T09:06:34.813Z,6.40
2022-12-25T09:09:01.915Z,5.10
2022-12-25T09:11:28.898Z,7.15
2022-12-25T09:13:55.942Z,6.03
2022-12-25T09:16:24.252Z,5.57
2022-12-25T09:18:51.655Z,4.28
2022-12-25T09:21:19.517Z,4.28
2022-12-25T09:23:46.684Z,4.35
2022-12-25T09:26:17.907Z,5.43
2022-12-25T09:28:51.257Z,5.53
2022-12-25T09:31:22.372Z,5.95
2022-12-25T09:33:51.213Z,5.78
2022-12-25T09:36:18.273Z,13.40
2022-12-25T09:38:48.411Z,91.13
2022-12-25T09:41:33.865Z,244.30
2022-12-25T09:44:20.099Z,100.65
2022-12-25T09:46:55.966Z,12.55
2022-12-25T09:49:23.011Z,13.68
2022-12-25T09:52:02.597Z,19.90
2022-12-25T09:55:04.828Z,11.30
2022-12-25T09:57:32.834Z,9.07
2022-12-25T10:00:01.137Z,7.20
2022-12-25T10:02:56.991Z,7.93
2022-12-25T10:06:01.939Z,7.93
2022-12-25T10:08:54.827Z,12.00
2022-12-25T10:11:57.386Z,7.10
2022-12-25T10:14:33.318Z,8.30
2022-12-25T10:18:08.481Z,11.50
2022-12-25T10:20:56.942Z,10.95
2022-12-25T10:23:35.686Z,10.43
2022-12-25T10:26:12.154Z,6.40
2022-12-25T10:28:47.517Z,4.07
2022-12-25T10:31:21.778Z,5.10
2022-12-25T10:33:52.681Z,5.95
2022-12-25T10:36:27.086Z,6.57
2022-12-25T10:42:00.320Z,23.70
2022-12-25T10:46:59.035Z,6.70
2022-12-25T10:49:34.143Z,12.38
2022-12-25T10:52:02.608Z,7.15
2022-12-25T10:54:35.118Z,7.35
2022-12-25T10:57:29.214Z,7.50
2022-12-25T11:00:01.705Z,6.40
2022-12-25T11:02:36.548Z,5.30
2022-12-25T11:05:19.153Z,5.63
2022-12-25T11:07:54.252Z,11.85
2022-12-25T11:10:26.551Z,13.30
2022-12-25T11:12:54.703Z,5.28
2022-12-25T11:15:45.965Z,4.40
2022-12-25T11:18:26.117Z,6.95
2022-12-25T11:21:02.576Z,7.10
2022-12-25T11:23:33.030Z,4.90
2022-12-25T11:26:07.818Z,5.22
2022-12-25T11:28:40.446Z,4.40
2022-12-25T11:31:19.163Z,4.68
2022-12-25T11:33:53.368Z,5.60
2022-12-25T11:36:29.334Z,5.28
2022-12-25T11:39:09.014Z,5.65
2022-12-25T11:41:38.804Z,5.93
2022-12-25T11:44:33.560Z,5.65
2022-12-25T11:47:13.092Z,6.60
2022-12-25T11:50:00.985Z,5.53
2022-12-25T11:52:37.095Z,4.60
2022-12-25T11:55:18.716Z,5.07
2022-12-25T11:57:54.756Z,4.63
2022-12-25T12:00:22.913Z,4.35
2022-12-25T12:03:02.714Z,4.78
2022-12-25T12:05:43.209Z,5.00
2022-12-25T12:08:11.760Z,4.97
2022-12-25T12:11:39.882Z,5.05
2022-12-25T12:14:43.093Z,4.85
2022-12-25T12:17:14.756Z,4.63
2022-12-25T12:19:42.392Z,5.65
2022-12-25T12:22:36.105Z,4.82
2022-12-25T12:25:07.826Z,5.38
2022-12-25T12:27:40.377Z,4.88
2022-12-25T12:30:31.549Z,4.75
2022-12-25T12:33:04.581Z,10.20
2022-12-25T12:35:37.067Z,67.93
2022-12-25T12:38:15.166Z,13.73
2022-12-25T12:40:53.058Z,5.47
2022-12-25T12:43:36.436Z,6.50
2022-12-25T12:46:30.582Z,7.70
2022-12-25T12:49:20.556Z,8.32
2022-12-25T12:51:48.384Z,6.55
2022-12-25T12:54:22.044Z,7.00
2022-12-25T12:57:22.953Z,6.63
2022-12-25T12:59:50.086Z,6.25
2022-12-25T13:02:53.152Z,7.20
2022-12-25T13:05:48.847Z,7.28
2022-12-25T13:09:02.642Z,8.02
2022-12-25T13:11:38.824Z,8.07
2022-12-25T13:14:06.365Z,8.20
2022-12-25T13:16:39.560Z,8.00
2022-12-25T13:21:55.717Z,7.82
2022-12-25T13:24:27.531Z,8.25
2022-12-25T13:26:55.329Z,7.90
2022-12-25T13:29:38.665Z,8.10
2022-12-25T13:32:19.072Z,7.85
2022-12-25T13:34:46.833Z,12.82
2022-12-25T13:37:17.775Z,15.20
2022-12-25T13:39:53.320Z,10.15
2022-12-25T13:42:27.149Z,11.13
2022-12-25T13:45:06.479Z,10.13
2022-12-25T13:47:40.699Z,8.65
2022-12-25T13:50:23.260Z,9.40
2022-12-25T13:52:52.182Z,9.95
2022-12-25T13:55:26.721Z,10.18
2022-12-25T13:58:03.493Z,11.45
2022-12-25T14:00:45.132Z,10.48
2022-12-25T14:03:48.082Z,11.05
2022-12-25T14:06:26.028Z,10.10
2022-12-25T14:08:56.978Z,9.50
2022-12-25T14:11:28.313Z,9.80
2022-12-25T14:14:07.271Z,10.05
2022-12-25T14:16:35.115Z,9.60
2022-12-25T14:19:32.371Z,10.07
2022-12-25T14:22:12.795Z,9.77
2022-12-25T14:24:40.565Z,9.60
2022-12-25T14:27:22.356Z,10.45
2022-12-25T14:29:56.581Z,10.48
2022-12-25T14:35:02.758Z,11.02
2022-12-25T14:37:33.280Z,11.13
2022-12-25T14:40:19.388Z,10.57
2022-12-25T14:42:59.462Z,10.90
2022-12-25T14:45:38.474Z,12.77
2022-12-25T14:48:25.181Z,20.02
2022-12-25T14:51:05.063Z,11.75
2022-12-25T14:53:49.072Z,14.20
2022-12-25T14:56:21.908Z,11.13
2022-12-25T14:58:53.737Z,11.27
2022-12-25T15:01:33.332Z,11.93
2022-12-25T15:04:15.159Z,11.80
2022-12-25T15:06:55.204Z,10.95
2022-12-25T15:09:23.894Z,11.10
2022-12-25T15:11:56.022Z,13.50
2022-12-25T15:14:24.440Z,12.15
2022-12-25T15:16:56.524Z,11.27
2022-12-25T15:19:36.944Z,11.60
2022-12-25T15:22:05.612Z,12.45
2022-12-25T15:24:32.876Z,11.70
2022-12-25T15:27:02.945Z,10.90
2022-12-25T15:30:07.923Z,10.98
2022-12-25T15:32:21.308Z,11.70
2022-12-25T15:34:49.937Z,11.20
2022-12-25T15:37:18.962Z,12.60
2022-12-25T15:39:46.804Z,11.07
2022-12-25T15:42:19.563Z,11.88
2022-12-25T15:44:46.769Z,12.00
2022-12-25T15:47:17.743Z,11.98
2022-12-25T15:49:44.875Z,11.70
2022-12-25T15:52:16.641Z,12.63
2022-12-25T15:54:44.699Z,13.90
2022-12-25T15:57:22.705Z,17.73
2022-12-25T15:59:49.891Z,12.98
2022-12-25T16:02:20.699Z,29.60
2022-12-25T16:04:51.102Z,16.05
2022-12-25T16:07:23.422Z,16.08
2022-12-25T16:09:52.079Z,14.77
2022-12-25T16:12:21.054Z,15.40
2022-12-25T16:14:52.121Z,16.98
2022-12-25T16:17:21.335Z,19.20
2022-12-25T16:19:48.413Z,19.13
2022-12-25T16:22:26.089Z,17.02
2022-12-25T16:24:53.746Z,16.10
2022-12-25T16:27:21.645Z,18.08
2022-12-25T16:29:48.709Z,19.80
2022-12-25T16:32:16.772Z,17.73
2022-12-25T16:34:44.009Z,19.90
2022-12-25T16:37:12.116Z,20.98
2022-12-25T16:39:39.168Z,19.10
2022-12-25T16:42:07.896Z,23.83
2022-12-25T16:44:37.461Z,23.65
2022-12-25T16:47:04.717Z,23.48
2022-12-25T16:49:33.869Z,26.30
2022-12-25T16:52:00.937Z,25.90
2022-12-25T16:54:28.035Z,24.42
2022-12-25T16:57:01.074Z,23.55
2022-12-25T16:59:30.617Z,26.33
2022-12-25T17:01:57.735Z,25.67
2022-12-25T17:04:25.315Z,29.08
2022-12-25T17:06:52.349Z,32.67
2022-12-25T17:09:19.424Z,31.45
2022-12-25T17:11:46.475Z,32.05
2022-12-25T17:14:13.571Z,23.95
2022-12-25T17:16:40.703Z,23.75
2022-12-25T17:19:21.120Z,24.55
2022-12-25T17:21:48.546Z,21.15
2022-12-25T17:24:16.517Z,26.42
2022-12-25T17:26:44.659Z,25.30
2022-12-25T17:29:17.192Z,29.38
2022-12-25T17:31:48.697Z,22.30
2022-12-25T17:34:15.949Z,25.58
2022-12-25T17:36:44.031Z,26.60
2022-12-25T17:39:15.157Z,22.20
2022-12-25T17:41:42.223Z,48.92
2022-12-25T17:44:12.986Z,35.83
2022-12-25T17:46:41.422Z,25.75
2022-12-25T17:49:15.413Z,21.02
2022-12-25T17:51:42.567Z,22.50
2022-12-25T17:54:10.067Z,23.92
2022-12-25T17:56:37.642Z,29.50
2022-12-25T17:59:08.329Z,27.05
2022-12-25T18:01:38.881Z,23.77
2022-12-25T18:04:10.283Z,25.55
2022-12-25T18:06:40.310Z,24.90
2022-12-25T18:09:07.618Z,25.83
2022-12-25T18:11:40.612Z,24.92
2022-12-25T18:14:12.667Z,43.92
2022-12-25T18:16:43.431Z,32.10
2022-12-25T18:19:17.764Z,38.00
2022-12-25T18:21:44.960Z,48.72
2022-12-25T18:24:14.489Z,27.20
2022-12-25T18:26:41.625Z,26.85
2022-12-25T18:29:10.306Z,21.10
2022-12-25T18:31:37.543Z,21.02
2022-12-25T18:34:04.716Z,24.25
2022-12-25T18:36:32.440Z,22.13
2022-12-25T18:38:59.989Z,20.75
2022-12-25T18:41:28.739Z,20.55
2022-12-25T18:43:56.923Z,21.85
2022-12-25T18:46:27.823Z,20.42
2022-12-25T18:48:59.828Z,16.83
2022-12-25T18:51:33.087Z,18.65
2022-12-25T18:54:04.061Z,18.73
2022-12-25T18:56:31.216Z,58.25
2022-12-25T18:59:04.644Z,33.20
2022-12-25T19:01:31.762Z,39.63
2022-12-25T19:04:04.493Z,51.45
2022-12-25T19:06:33.404Z,47.22
2022-12-25T19:09:00.714Z,156.88
2022-12-25T19:11:27.939Z,31.20
2022-12-25T19:13:57.296Z,57.58
2022-12-25T19:16:24.383Z,65.25
2022-12-25T19:18:54.725Z,36.28
2022-12-25T19:21:24.087Z,83.80
2022-12-25T19:23:54.119Z,23.25
2022-12-25T19:26:22.569Z,25.95
2022-12-25T19:28:49.628Z,18.60
2022-12-25T19:31:16.838Z,24.25
2022-12-25T19:33:44.499Z,22.55
2022-12-25T19:36:15.931Z,20.75
2022-12-25T19:38:44.197Z,19.95
2022-12-25T19:41:19.303Z,20.08
2022-12-25T19:43:52.560Z,18.60
2022-12-25T19:46:28.680Z,19.92
2022-12-25T19:48:57.687Z,18.92
2022-12-25T19:51:49.558Z,18.27
2022-12-25T19:54:20.465Z,20.50
2022-12-25T19:56:49.049Z,19.23
2022-12-25T19:59:16.284Z,18.95
2022-12-25T20:01:43.812Z,18.23
2022-12-25T20:04:11.410Z,18.48
2022-12-25T20:06:45.321Z,19.23
2022-12-25T20:09:21.188Z,19.13
2022-12-25T20:11:48.987Z,19.30
2022-12-25T20:14:17.362Z,18.70
2022-12-25T20:16:44.706Z,18.65
2022-12-25T20:19:13.332Z,18.20
2022-12-25T20:21:41.854Z,19.83
2022-12-25T20:24:12.312Z,19.75
2022-12-25T20:26:39.772Z,21.15
2022-12-25T20:29:07.026Z,21.98
2022-12-25T20:31:35.736Z,21.10
2022-12-25T20:34:13.564Z,22.23
2022-12-25T20:36:43.531Z,20.58
2022-12-25T20:39:13.950Z,20.70
2022-12-25T20:41:42.896Z,22.00
2022-12-25T20:44:10.393Z,20.42
2022-12-25T20:46:38.178Z,21.35
2022-12-25T20:49:05.937Z,20.80
2022-12-25T20:51:33.228Z,21.75
2022-12-25T20:54:01.003Z,21.05
2022-12-25T20:56:30.222Z,22.73
2022-12-25T20:59:00.261Z,21.30
2022-12-25T21:01:30.144Z,21.48
2022-12-25T21:03:59.405Z,22.20
2022-12-25T21:06:27.734Z,21.35
2022-12-25T21:08:55.104Z,20.83
2022-12-25T21:11:22.721Z,21.23
2022-12-25T21:13:50.138Z,19.63
2022-12-25T21:16:22.506Z,20.90
2022-12-25T21:18:53.112Z,19.55
2022-12-25T21:21:21.309Z,19.92
2022-12-25T21:23:48.492Z,20.20
2022-12-25T21:26:23.221Z,17.92
2022-12-25T21:28:55.232Z,18.50
2022-12-25T21:31:22.985Z,18.23
2022-12-25T21:33:57.577Z,18.08
2022-12-25T21:39:06.487Z,17.83
2022-12-25T21:41:36.794Z,17.58
2022-12-25T21:44:05.185Z,17.33
2022-12-25T21:46:32.459Z,16.13
2022-12-25T21:49:00.746Z,17.73
2022-12-25T21:51:50.699Z,18.60
2022-12-25T21:54:20.718Z,17.10
2022-12-25T21:56:49.580Z,17.50
2022-12-25T21:59:21.149Z,17.13
2022-12-25T22:01:51.018Z,16.75
2022-12-25T22:04:22.844Z,16.98
2022-12-25T22:07:08.812Z,16.85
2022-12-25T22:09:36.711Z,16.73
2022-12-25T22:12:22.549Z,16.60
2022-12-25T22:14:54.168Z,17.25
2022-12-25T22:17:47.130Z,16.80
2022-12-25T22:20:30.111Z,16.50
2022-12-25T22:22:58.251Z,16.45
2022-12-25T22:25:25.885Z,15.80
2022-12-25T22:27:53.336Z,15.27
2022-12-25T22:30:28.804Z,16.20
2022-12-25T22:32:57.224Z,15.45
2022-12-25T22:35:24.884Z,14.68
2022-12-25T22:37:55.621Z,16.15
2022-12-25T22:40:22.734Z,16.17
2022-12-25T22:42:49.736Z,15.70
2022-12-25T22:45:16.986Z,15.80
2022-12-25T22:47:44.034Z,15.25
2022-12-25T22:50:14.607Z,14.95
2022-12-25T22:52:43.110Z,15.55
2022-12-25T22:55:10.969Z,16.25
2022-12-25T22:57:38.012Z,15.50
2022-12-25T23:00:08.889Z,15.85
2022-12-25T23:02:36.374Z,17.45
2022-12-25T23:05:04.403Z,17.83
2022-12-25T23:07:31.532Z,16.98
2022-12-25T23:09:59.580Z,16.88
2022-12-25T23:12:45.498Z,16.92
2022-12-25T23:15:12.752Z,16.95
2022-12-25T23:17:58.724Z,17.48
2022-12-25T23:20:44.678Z,17.73
2022-12-25T23:23:35.233Z,18.58
2022-12-25T23:26:09.459Z,17.25
2022-12-25T23:28:59.695Z,18.70
2022-12-25T23:31:38.133Z,21.67
2022-12-25T23:34:06.612Z,22.40
2022-12-25T23:36:34.351Z,19.98
2022-12-25T23:39:09.184Z,19.95
2022-12-25T23:41:39.463Z,19.27
2022-12-25T23:44:07.658Z,19.30
2022-12-25T23:46:35.027Z,19.65
2022-12-25T23:49:02.159Z,18.92
2022-12-25T23:51:29.231Z,19.85
2022-12-25T23:53:56.431Z,20.17
2022-12-25T23:56:24.578Z,19.48
2022-12-25T23:58:51.963Z,20.73
